Time;durP1;ratioP1;P1;durP2;ratioP2;P2;SDS_P1;SDS_P2;PMS_P1;PMS_P2;Temp;Humidity;BMP_temperature;BMP_pressure;BME280_temperature;BME280_humidity;BME280_pressure;Samples;Min_cycle;Max_cycle;Signal;HPM_P1;HPM_P2
2023/06/28 00:00:45;;;;;;;3.30;2.60;;;;;;;19.17;51.91;99710.41;4980496;28;20825;-80
2023/06/28 00:03:13;;;;;;;3.40;2.97;;;;;;;19.15;51.89;99705.25;4979737;28;20873;-81
2023/06/28 00:05:38;;;;;;;3.35;2.67;;;;;;;19.13;52.32;99699.25;4978577;28;20527;-82
2023/06/28 00:08:04;;;;;;;3.23;2.60;;;;;;;19.12;52.52;99702.03;4978958;28;20370;-84
2023/06/28 00:10:29;;;;;;;2.70;2.23;;;;;;;19.12;52.27;99710.03;4979369;28;20226;-85
2023/06/28 00:12:55;;;;;;;2.53;2.33;;;;;;;19.12;52.13;99708.22;4978648;28;20213;-83
2023/06/28 00:15:21;;;;;;;2.67;2.47;;;;;;;19.12;52.08;99712.69;4979429;28;20213;-79
2023/06/28 00:17:46;;;;;;;4.53;2.67;;;;;;;19.11;51.81;99717.19;4980465;28;20484;-87
2023/06/28 00:20:12;;;;;;;2.53;2.33;;;;;;;19.10;51.88;99712.03;4979204;28;20218;-84
2023/06/28 00:22:39;;;;;;;3.13;2.87;;;;;;;19.05;51.80;99707.13;4979860;28;20392;-81
2023/06/28 00:25:05;;;;;;;3.37;2.80;;;;;;;19.04;51.75;99716.13;4979572;28;20214;-81
2023/06/28 00:27:31;;;;;;;4.33;3.17;;;;;;;19.08;51.39;99714.00;4979361;28;20820;-79
2023/06/28 00:29:58;;;;;;;4.73;2.80;;;;;;;19.10;51.37;99707.53;4962450;28;20527;-82
2023/06/28 00:32:25;;;;;;;3.27;2.97;;;;;;;19.07;51.65;99707.84;4953909;28;20451;-79
2023/06/28 00:34:51;;;;;;;2.80;2.60;;;;;;;19.01;52.10;99708.44;4979935;28;20492;-84
2023/06/28 00:37:18;;;;;;;2.53;2.33;;;;;;;18.94;52.31;99707.34;4980596;28;20427;-82
2023/06/28 00:39:43;;;;;;;4.33;2.43;;;;;;;18.92;52.38;99706.66;4977966;28;20470;-85
2023/06/28 00:42:09;;;;;;;5.20;3.60;;;;;;;18.93;52.48;99708.31;4980092;28;20226;-79
2023/06/28 00:44:34;;;;;;;4.53;2.97;;;;;;;18.95;52.54;99709.00;4961890;28;20244;-79
2023/06/28 00:47:01;;;;;;;2.40;2.10;;;;;;;18.96;52.49;99700.06;4978533;28;20212;-80
2023/06/28 00:49:31;;;;;;;6.27;2.93;;;;;;;18.96;52.34;99700.91;4961034;28;20231;-79
2023/06/28 00:51:56;;;;;;;4.90;2.60;;;;;;;18.99;52.24;99705.09;4977530;28;20481;-82
2023/06/28 00:54:25;;;;;;;3.10;2.37;;;;;;;19.02;52.26;99705.59;4978477;28;20473;-80
2023/06/28 00:56:51;;;;;;;3.93;2.83;;;;;;;19.07;51.84;99707.00;4955643;28;20610;-81
2023/06/28 00:59:17;;;;;;;4.80;3.47;;;;;;;19.10;51.54;99698.72;4978858;28;20470;-79
2023/06/28 01:01:43;;;;;;;3.07;2.83;;;;;;;19.12;51.64;99702.03;4960760;28;20209;-80
2023/06/28 01:04:09;;;;;;;3.70;2.70;;;;;;;19.11;51.52;99706.53;4978624;28;20266;-79
2023/06/28 01:06:37;;;;;;;2.93;2.60;;;;;;;19.11;52.36;99698.53;4977428;28;20466;-83
2023/06/28 01:09:04;;;;;;;3.20;2.13;;;;;;;19.02;52.92;99707.44;4978261;28;20509;-81
2023/06/28 01:11:33;;;;;;;3.30;3.00;;;;;;;18.88;53.34;99700.81;4978491;28;20498;-79
2023/06/28 01:13:59;;;;;;;2.03;1.83;;;;;;;18.79;53.69;99707.00;4979008;28;20477;-79
2023/06/28 01:16:25;;;;;;;3.40;2.30;;;;;;;18.79;53.75;99707.00;4961284;28;20473;-79
2023/06/28 01:18:50;;;;;;;3.83;2.80;;;;;;;18.82;53.43;99704.03;4974600;28;20230;-80
2023/06/28 01:21:16;;;;;;;3.93;3.00;;;;;;;18.90;53.06;99701.50;4978852;28;20290;-80
2023/06/28 01:23:42;;;;;;;3.53;2.80;;;;;;;18.97;52.38;99709.72;4961409;28;20215;-79
2023/06/28 01:26:08;;;;;;;2.60;2.23;;;;;;;19.03;52.57;99703.78;4978940;28;20496;-79
2023/06/28 01:28:35;;;;;;;2.90;2.43;;;;;;;19.04;52.23;99700.16;4960617;28;20457;-79
2023/06/28 01:31:00;;;;;;;3.23;2.30;;;;;;;19.01;52.19;99695.97;4977352;28;20474;-79
2023/06/28 01:33:26;;;;;;;4.23;2.47;;;;;;;18.96;51.88;99700.91;4977960;28;21008;-79
2023/06/28 01:35:52;;;;;;;3.53;2.87;;;;;;;18.85;52.08;99700.25;4977718;28;20227;-79
2023/06/28 01:38:19;;;;;;;3.03;2.70;;;;;;;18.74;52.29;99699.47;4977629;28;20481;-79
2023/06/28 01:40:48;;;;;;;5.27;2.53;;;;;;;18.70;52.40;99691.91;4976886;28;20227;-79
2023/06/28 01:43:14;;;;;;;3.43;2.77;;;;;;;18.66;52.50;99690.50;4981803;28;20453;-79
2023/06/28 01:45:39;;;;;;;2.60;2.30;;;;;;;18.70;52.24;99698.06;4980682;28;20491;-79
2023/06/28 01:48:05;;;;;;;2.47;2.07;;;;;;;18.76;52.42;99686.84;4980902;28;20304;-79
2023/06/28 01:50:30;;;;;;;4.10;2.47;;;;;;;18.82;52.18;99689.91;4981782;28;20582;-79
2023/06/28 01:53:03;;;;;;;3.70;2.20;;;;;;;18.87;52.07;99688.47;4982418;28;20455;-79
2023/06/28 01:55:29;;;;;;;4.80;2.50;;;;;;;18.90;52.04;99692.66;4982544;28;20227;-79
2023/06/28 01:57:55;;;;;;;3.10;2.47;;;;;;;18.93;51.55;99697.66;4980814;28;20470;-79
2023/06/28 02:00:21;;;;;;;2.83;2.63;;;;;;;18.98;51.82;99698.06;4959309;28;20983;-79
2023/06/28 02:02:50;;;;;;;2.90;2.30;;;;;;;18.96;52.18;99700.06;4962789;28;20441;-79
2023/06/28 02:05:16;;;;;;;3.08;2.78;;;;;;;18.88;52.62;99700.81;4961910;28;20496;-80
2023/06/28 02:07:42;;;;;;;3.33;2.60;;;;;;;18.78;53.52;99698.19;4956816;28;20221;-79
2023/06/28 02:10:10;;;;;;;4.00;2.80;;;;;;;18.69;54.01;99698.22;4952594;28;20490;-79
2023/06/28 02:12:35;;;;;;;5.40;3.10;;;;;;;18.59;54.35;99687.59;4963567;28;20315;-79
2023/06/28 02:15:02;;;;;;;4.10;2.80;;;;;;;18.52;54.21;99691.81;4980307;28;20554;-79
2023/06/28 02:17:28;;;;;;;3.67;2.47;;;;;;;18.48;54.49;99693.13;4952600;28;20219;-79
2023/06/28 02:19:54;;;;;;;3.83;2.80;;;;;;;18.43;54.88;99696.22;4981069;28;20510;-80
2023/06/28 02:22:19;;;;;;;3.03;2.70;;;;;;;18.39;54.74;99691.31;4980527;28;20465;-80
2023/06/28 02:24:45;;;;;;;2.70;2.00;;;;;;;18.35;54.94;99693.44;4980128;28;20569;-80
2023/06/28 02:27:10;;;;;;;4.00;2.93;;;;;;;18.30;55.19;99691.22;4980826;28;20212;-79
2023/06/28 02:29:37;;;;;;;3.43;2.97;;;;;;;18.26;55.39;99691.66;4957214;28;20726;-79
2023/06/28 02:32:03;;;;;;;6.70;4.60;;;;;;;18.26;55.37;99691.66;4980099;28;20484;-79
2023/06/28 02:34:29;;;;;;;3.03;2.70;;;;;;;18.30;55.32;99690.38;4980543;28;20487;-79
2023/06/28 02:36:54;;;;;;;6.80;3.60;;;;;;;18.33;55.21;99692.75;4980800;28;20569;-79
2023/06/28 02:39:20;;;;;;;3.47;2.97;;;;;;;18.32;55.46;99691.91;4979936;28;20253;-79
2023/06/28 02:41:45;;;;;;;3.00;2.77;;;;;;;18.34;55.22;99689.13;4980981;28;20211;-79
2023/06/28 02:44:11;;;;;;;4.30;3.40;;;;;;;18.35;55.12;99680.97;4952078;28;20215;-80
2023/06/28 02:46:36;;;;;;;5.13;3.63;;;;;;;18.41;54.93;99673.41;4980243;28;20300;-80
2023/06/28 02:49:02;;;;;;;3.40;2.57;;;;;;;18.50;54.86;99675.19;4980745;28;20456;-78
2023/06/28 02:51:27;;;;;;;5.03;2.77;;;;;;;18.60;54.61;99668.00;4963815;28;20232;-79
2023/06/28 02:53:53;;;;;;;3.57;2.80;;;;;;;18.66;54.11;99664.75;4961155;28;20295;-79
2023/06/28 02:56:18;;;;;;;5.50;3.00;;;;;;;18.70;53.82;99659.97;4961811;28;20508;-79
2023/06/28 02:59:02;;;;;;;2.73;2.33;;;;;;;18.72;53.66;99669.47;4973333;28;20249;-79
2023/06/28 03:01:28;;;;;;;2.33;2.10;;;;;;;18.75;53.54;99661.22;4954516;28;20457;-78
2023/06/28 03:03:54;;;;;;;3.63;3.23;;;;;;;18.77;53.13;99656.59;4978735;28;20221;-79
2023/06/28 03:06:19;;;;;;;3.10;2.20;;;;;;;18.81;52.62;99657.13;4961343;28;20759;-80
2023/06/28 03:08:44;;;;;;;3.83;2.50;;;;;;;18.84;52.52;99661.31;4958250;28;20290;-79
2023/06/28 03:11:10;;;;;;;7.73;3.17;;;;;;;18.87;52.33;99656.53;4960947;28;20721;-79
2023/06/28 03:13:35;;;;;;;4.47;2.53;;;;;;;18.87;52.32;99661.00;4960802;28;20476;-79
2023/06/28 03:16:01;;;;;;;3.63;2.53;;;;;;;18.86;52.38;99659.34;4961477;28;20728;-78
2023/06/28 03:18:26;;;;;;;4.07;2.50;;;;;;;18.86;51.77;99660.19;4965926;28;20275;-79
2023/06/28 03:20:52;;;;;;;3.10;2.83;;;;;;;18.89;51.91;99656.38;4958790;28;20208;-79
2023/06/28 03:23:18;;;;;;;3.60;2.43;;;;;;;18.87;52.06;99650.38;4979842;28;20208;-79
2023/06/28 03:25:44;;;;;;;3.23;2.60;;;;;;;18.87;52.37;99645.03;4963122;28;20458;-78
2023/06/28 03:28:10;;;;;;;3.37;3.07;;;;;;;18.87;52.14;99635.22;4979569;28;20473;-79
2023/06/28 03:30:35;;;;;;;4.17;2.80;;;;;;;18.88;52.26;99633.44;4958835;28;20229;-79
2023/06/28 03:33:01;;;;;;;3.77;2.93;;;;;;;18.86;52.19;99638.06;4954416;28;20811;-79
2023/06/28 03:35:26;;;;;;;3.77;2.53;;;;;;;18.91;52.15;99636.63;4979733;28;20446;-78
2023/06/28 03:37:53;;;;;;;5.10;2.70;;;;;;;18.91;52.06;99646.44;4960617;28;20248;-79
2023/06/28 03:40:20;;;;;;;4.87;2.53;;;;;;;18.89;52.02;99637.75;4979436;28;20695;-79
2023/06/28 03:42:47;;;;;;;3.47;3.00;;;;;;;18.89;51.78;99648.41;4966950;28;20472;-78
2023/06/28 03:45:16;;;;;;;3.10;2.10;;;;;;;18.88;51.80;99647.56;4957374;28;20470;-78
2023/06/28 03:47:41;;;;;;;3.67;3.00;;;;;;;18.88;51.38;99639.59;4961831;28;20496;-79
2023/06/28 03:50:08;;;;;;;4.83;2.80;;;;;;;18.88;51.88;99636.09;4953951;28;20581;-79
2023/06/28 03:52:36;;;;;;;2.80;2.60;;;;;;;18.87;51.89;99639.72;4968472;28;20209;-79
2023/06/28 03:55:02;;;;;;;4.97;3.33;;;;;;;18.82;51.96;99640.16;4961642;28;20474;-78
2023/06/28 03:57:29;;;;;;;4.27;2.13;;;;;;;18.75;51.67;99642.59;4960852;28;20461;-79
2023/06/28 03:59:55;;;;;;;3.00;2.70;;;;;;;18.69;51.85;99642.34;4966891;28;21039;-79
2023/06/28 04:02:20;;;;;;;3.13;2.40;;;;;;;18.68;51.99;99641.47;4979446;28;20549;-80
2023/06/28 04:04:45;;;;;;;3.77;3.30;;;;;;;18.72;51.72;99642.03;4977827;28;21214;-78
2023/06/28 04:07:11;;;;;;;4.33;3.10;;;;;;;18.73;51.81;99647.19;4977957;28;20265;-78
2023/06/28 04:09:38;;;;;;;3.40;2.30;;;;;;;18.75;51.79;99642.59;4978544;28;20214;-78
2023/06/28 04:12:04;;;;;;;3.30;2.90;;;;;;;18.76;51.56;99638.94;4979986;28;20223;-78
2023/06/28 04:14:30;;;;;;;4.00;2.90;;;;;;;18.78;51.38;99642.28;4978923;28;20849;-78
2023/06/28 04:16:55;;;;;;;3.40;2.80;;;;;;;18.82;51.44;99639.34;4979003;28;21054;-78
2023/06/28 04:19:21;;;;;;;5.80;3.40;;;;;;;18.80;51.22;99631.50;4977591;28;20729;-79
2023/06/28 04:21:46;;;;;;;3.80;2.47;;;;;;;18.86;51.08;99632.75;4978641;28;20217;-80
2023/06/28 04:24:11;;;;;;;5.03;3.07;;;;;;;18.90;50.99;99634.09;4979131;28;20696;-80
2023/06/28 04:26:37;;;;;;;3.60;2.40;;;;;;;18.93;50.91;99624.00;4978262;28;20220;-79
2023/06/28 04:29:02;;;;;;;3.90;2.60;;;;;;;18.99;50.90;99619.91;4977601;28;20232;-79
2023/06/28 04:31:28;;;;;;;3.00;2.53;;;;;;;19.02;50.69;99616.94;4978974;28;20757;-79
2023/06/28 04:33:57;;;;;;;4.67;3.53;;;;;;;19.06;50.33;99617.44;4979081;28;20734;-79
2023/06/28 04:36:25;;;;;;;5.78;3.10;;;;;;;19.06;50.57;99623.59;4978053;28;20799;-78
2023/06/28 04:38:52;;;;;;;5.63;3.07;;;;;;;19.04;50.63;99625.63;4977928;28;20286;-80
2023/06/28 04:41:25;;;;;;;3.17;2.53;;;;;;;19.03;50.89;99621.25;4978524;28;20460;-79
2023/06/28 04:43:55;;;;;;;6.50;3.30;;;;;;;19.03;50.96;99621.25;4978493;28;20464;-78
2023/06/28 04:46:22;;;;;;;3.10;2.80;;;;;;;19.06;50.91;99631.59;4977975;28;20830;-79
2023/06/28 04:48:48;;;;;;;4.10;2.43;;;;;;;19.09;50.59;99633.97;4978336;28;21104;-78
2023/06/28 04:51:14;;;;;;;3.13;2.50;;;;;;;19.11;50.31;99634.66;4978442;28;20476;-79
2023/06/28 04:53:39;;;;;;;6.33;3.60;;;;;;;19.12;50.46;99632.81;4978030;28;20994;-79
2023/06/28 04:56:05;;;;;;;3.20;2.70;;;;;;;19.13;51.26;99639.84;4969735;28;20220;-79
2023/06/28 04:58:33;;;;;;;4.30;3.07;;;;;;;19.13;51.74;99643.31;4978120;28;20736;-79
2023/06/28 05:00:58;;;;;;;5.93;2.87;;;;;;;19.16;51.96;99643.00;4978293;28;21009;-80
2023/06/28 05:03:27;;;;;;;6.70;2.53;;;;;;;19.17;51.79;99644.72;4970583;28;20474;-80
2023/06/28 05:05:55;;;;;;;4.50;2.77;;;;;;;19.18;52.04;99646.38;4977992;28;20237;-79
2023/06/28 05:08:21;;;;;;;3.47;1.93;;;;;;;19.19;51.96;99645.38;4980611;28;20475;-80
2023/06/28 05:10:46;;;;;;;3.47;3.27;;;;;;;19.20;52.20;99647.06;4979931;28;20500;-80
2023/06/28 05:13:12;;;;;;;3.80;2.97;;;;;;;19.16;53.01;99645.69;4979304;28;20213;-79
2023/06/28 05:15:37;;;;;;;7.27;3.37;;;;;;;19.13;53.66;99646.00;4979508;28;20213;-79
2023/06/28 05:18:03;;;;;;;6.00;2.57;;;;;;;19.09;54.01;99655.28;4980710;28;20571;-80
2023/06/28 05:20:29;;;;;;;2.73;2.53;;;;;;;19.06;54.48;99644.06;4980050;28;20222;-80
2023/06/28 05:23:15;;;;;;;2.77;2.57;;;;;;;19.09;54.29;99643.78;4981163;28;20464;-80
2023/06/28 05:25:41;;;;;;;2.63;2.43;;;;;;;19.10;54.06;99656.13;4981690;28;20268;-79
2023/06/28 05:28:09;;;;;;;2.67;2.40;;;;;;;19.11;54.30;99655.94;4981344;28;20477;-79
2023/06/28 05:30:34;;;;;;;3.33;2.50;;;;;;;19.12;54.24;99662.97;4979594;28;20484;-80
2023/06/28 05:33:02;;;;;;;5.73;2.43;;;;;;;19.14;53.66;99660.13;4979116;28;20463;-80
2023/06/28 05:35:32;;;;;;;3.70;2.90;;;;;;;19.17;53.72;99673.13;4977355;28;20304;-79
2023/06/28 05:37:59;;;;;;;4.60;2.60;;;;;;;19.19;53.65;99671.16;4979320;28;20454;-79
2023/06/28 05:40:26;;;;;;;3.67;2.80;;;;;;;19.18;53.23;99662.34;4985006;28;20516;-80
2023/06/28 05:42:53;;;;;;;3.23;3.00;;;;;;;19.17;53.06;99663.34;4985931;28;21054;-81
2023/06/28 05:45:22;;;;;;;4.60;3.00;;;;;;;19.18;52.83;99658.84;4976025;28;20853;-80
2023/06/28 05:47:49;;;;;;;7.67;3.23;;;;;;;19.21;52.48;99659.38;4985685;28;20458;-80
2023/06/28 05:50:15;;;;;;;4.67;3.17;;;;;;;19.25;52.24;99654.56;4985173;28;21222;-80
2023/06/28 05:52:43;;;;;;;3.77;2.90;;;;;;;19.27;52.43;99657.94;4984917;28;20471;-80
2023/06/28 05:55:08;;;;;;;3.40;3.10;;;;;;;19.29;52.13;99649.81;4985802;28;20484;-80
2023/06/28 05:57:34;;;;;;;3.60;2.93;;;;;;;19.28;52.16;99648.97;4985794;28;20470;-80
2023/06/28 05:59:59;;;;;;;5.47;3.10;;;;;;;19.30;52.53;99644.31;4985356;28;20223;-80
2023/06/28 06:02:27;;;;;;;4.30;3.57;;;;;;;19.33;52.06;99643.16;4981469;28;20276;-80
2023/06/28 06:04:52;;;;;;;3.45;3.13;;;;;;;19.42;52.02;99644.94;4984219;28;20432;-80
2023/06/28 06:07:18;;;;;;;3.97;3.43;;;;;;;19.50;51.90;99647.66;4984602;28;20224;-80
2023/06/28 06:09:43;;;;;;;3.93;3.07;;;;;;;19.57;51.80;99651.34;4984831;28;20324;-80
2023/06/28 06:12:09;;;;;;;3.30;3.00;;;;;;;19.64;51.43;99647.09;4985955;28;20718;-80
2023/06/28 06:14:34;;;;;;;4.77;3.03;;;;;;;19.71;51.50;99649.16;4985631;28;20284;-81
2023/06/28 06:17:00;;;;;;;7.13;3.23;;;;;;;19.77;51.60;99652.06;4983282;28;20988;-81
2023/06/28 06:19:25;;;;;;;3.67;2.93;;;;;;;19.87;51.62;99654.59;4986263;28;20335;-80
2023/06/28 06:21:50;;;;;;;6.57;3.03;;;;;;;19.91;51.39;99648.00;4983810;28;20205;-80
2023/06/28 06:24:16;;;;;;;3.43;2.87;;;;;;;19.93;51.49;99654.00;4986519;28;20442;-80
2023/06/28 06:26:41;;;;;;;4.20;2.90;;;;;;;19.96;51.47;99652.84;4987145;28;20228;-80
2023/06/28 06:29:07;;;;;;;3.20;2.70;;;;;;;19.93;51.78;99663.81;4990529;28;20232;-80
2023/06/28 06:31:32;;;;;;;4.23;2.60;;;;;;;19.93;51.84;99671.81;4987818;28;20251;-80
2023/06/28 06:34:00;;;;;;;7.37;3.17;;;;;;;19.96;51.81;99668.84;4989217;28;20218;-80
2023/06/28 06:36:27;;;;;;;5.53;3.03;;;;;;;20.03;51.78;99668.03;4989327;28;20265;-80
2023/06/28 06:38:53;;;;;;;5.80;3.00;;;;;;;20.04;51.83;99669.75;4990196;28;20546;-80
2023/06/28 06:41:19;;;;;;;3.27;2.60;;;;;;;20.10;51.67;99666.44;4990736;28;21113;-80
2023/06/28 06:43:44;;;;;;;2.73;2.53;;;;;;;20.19;51.11;99666.47;4987276;28;21616;-80
2023/06/28 06:46:09;;;;;;;3.70;2.67;;;;;;;20.23;50.80;99667.84;4986169;28;20260;-80
2023/06/28 06:48:36;;;;;;;2.93;2.50;;;;;;;20.31;50.45;99667.91;4988951;28;20267;-81
2023/06/28 06:51:04;;;;;;;6.83;2.40;;;;;;;20.37;49.83;99666.41;4989780;28;20234;-80
2023/06/28 06:53:29;;;;;;;3.10;2.20;;;;;;;20.41;49.59;99673.91;4985155;28;20899;-79
2023/06/28 06:55:55;;;;;;;3.43;2.90;;;;;;;20.49;49.16;99679.31;5098433;23;20544;-84
2023/06/28 06:58:22;;;;;;;4.30;2.83;;;;;;;20.60;48.92;99682.72;4949700;28;20365;-83
2023/06/28 07:00:48;;;;;;;4.23;3.00;;;;;;;20.70;48.79;99675.44;4979407;28;20606;-83
2023/06/28 07:03:13;;;;;;;6.43;2.73;;;;;;;20.82;48.61;99689.31;4980868;28;20456;-83
2023/06/28 07:05:39;;;;;;;4.20;2.90;;;;;;;20.92;48.83;99680.16;4975355;28;20907;-83
2023/06/28 07:08:04;;;;;;;6.13;3.50;;;;;;;20.98;48.49;99686.69;4978363;28;20452;-84
2023/06/28 07:10:30;;;;;;;2.97;2.23;;;;;;;21.05;48.45;99689.56;4978776;28;20249;-80
2023/06/28 07:12:55;;;;;;;5.43;2.80;;;;;;;21.13;48.43;99684.22;4978040;28;20610;-81
2023/06/28 07:15:20;;;;;;;3.70;3.40;;;;;;;21.23;48.05;99690.28;4966653;28;20214;-79
2023/06/28 07:17:46;;;;;;;3.67;2.80;;;;;;;21.31;47.87;99686.78;4975575;28;20223;-81
2023/06/28 07:20:11;;;;;;;3.43;2.60;;;;;;;21.42;47.87;99684.66;4979693;28;20265;-83
2023/06/28 07:22:37;;;;;;;7.60;3.90;;;;;;;21.54;47.66;99687.81;4979198;28;20208;-82
2023/06/28 07:25:04;;;;;;;3.30;2.90;;;;;;;21.68;47.58;99686.31;4979005;28;20568;-81
2023/06/28 07:27:30;;;;;;;6.00;3.60;;;;;;;21.79;47.21;99680.66;4978797;28;20203;-82
2023/06/28 07:29:56;;;;;;;5.57;3.87;;;;;;;21.90;46.74;99683.97;4977676;28;20472;-80
2023/06/28 07:32:21;;;;;;;4.60;2.47;;;;;;;21.98;46.72;99700.00;4978246;28;20812;-80
2023/06/28 07:34:47;;;;;;;4.97;2.37;;;;;;;22.04;46.63;99699.34;4962740;28;20208;-80
2023/06/28 07:37:12;;;;;;;3.27;2.97;;;;;;;22.14;46.26;99699.13;4978917;28;20219;-80
2023/06/28 07:39:38;;;;;;;7.53;2.70;;;;;;;22.26;46.10;99692.47;4975844;28;20294;-82
2023/06/28 07:42:04;;;;;;;8.87;2.80;;;;;;;22.38;45.90;99685.72;4975840;28;20646;-83
2023/06/28 07:44:32;;;;;;;7.90;2.60;;;;;;;22.48;45.67;99685.53;4978898;28;20210;-82
2023/06/28 07:46:57;;;;;;;2.97;2.50;;;;;;;22.60;45.24;99689.53;4975977;28;20339;-81
2023/06/28 07:49:23;;;;;;;5.70;2.67;;;;;;;22.68;44.73;99689.50;4974702;28;20569;-81
2023/06/28 07:51:48;;;;;;;4.10;2.13;;;;;;;22.74;43.97;99693.31;4959660;28;20217;-82
2023/06/28 07:54:14;;;;;;;4.43;2.43;;;;;;;22.69;43.61;99684.97;4976632;28;20220;-79
2023/06/28 07:56:39;;;;;;;3.33;2.47;;;;;;;22.73;43.44;99689.78;4974125;28;20709;-80
2023/06/28 07:59:05;;;;;;;4.23;1.80;;;;;;;22.87;42.93;99685.56;4976080;28;20225;-80
2023/06/28 08:01:33;;;;;;;7.70;1.67;;;;;;;22.97;42.42;99674.63;4975179;28;20215;-81
2023/06/28 08:03:59;;;;;;;4.60;2.20;;;;;;;23.06;41.90;99678.97;4973293;28;20570;-80
2023/06/28 08:06:28;;;;;;;3.40;2.30;;;;;;;23.15;41.46;99680.56;4975014;28;21018;-82
2023/06/28 08:08:54;;;;;;;2.20;2.00;;;;;;;23.26;41.49;99673.97;4980545;28;20462;-82
2023/06/28 08:11:20;;;;;;;2.93;2.20;;;;;;;23.36;41.13;99665.69;4979018;28;20516;-81
2023/06/28 08:13:46;;;;;;;2.67;2.20;;;;;;;23.41;40.63;99671.34;4962118;28;20434;-83
2023/06/28 08:16:12;;;;;;;4.00;3.03;;;;;;;23.47;40.45;99676.00;4980205;28;20243;-83
2023/06/28 08:18:41;;;;;;;3.40;1.97;;;;;;;23.55;40.35;99672.41;4979603;28;20224;-81
2023/06/28 08:21:06;;;;;;;2.13;1.93;;;;;;;23.58;39.99;99677.41;4979373;28;21105;-80
2023/06/28 08:23:32;;;;;;;8.60;2.37;;;;;;;23.58;40.12;99675.56;4981292;28;20474;-81
2023/06/28 08:25:57;;;;;;;3.70;2.80;;;;;;;23.69;40.24;99681.53;4965751;28;20216;-80
2023/06/28 08:28:22;;;;;;;4.50;4.10;;;;;;;;;;4977714;28;20241;-80
2023/06/28 08:30:48;;;;;;;4.17;2.30;;;;;;;23.84;39.95;99677.91;4978929;28;20256;-81
2023/06/28 08:33:13;;;;;;;2.40;2.00;;;;;;;24.03;39.84;99681.91;4972787;28;20212;-83
2023/06/28 08:35:39;;;;;;;8.73;2.73;;;;;;;24.22;39.55;99679.69;4974226;28;20203;-82
2023/06/28 08:38:04;;;;;;;3.60;2.70;;;;;;;24.35;39.00;99679.03;4974302;28;20208;-83
2023/06/28 08:40:30;;;;;;;6.60;2.20;;;;;;;24.43;38.87;99685.16;4977351;28;20315;-80
2023/06/28 08:43:02;;;;;;;4.03;1.80;;;;;;;24.58;38.90;99695.09;4975839;28;20671;-80
2023/06/28 08:45:31;;;;;;;3.97;2.40;;;;;;;24.67;38.53;99683.22;4975656;28;20225;-80
2023/06/28 08:47:58;;;;;;;4.80;2.20;;;;;;;24.76;38.32;99687.47;4971809;28;20469;-82
2023/06/28 08:50:24;;;;;;;3.87;2.43;;;;;;;24.83;38.31;99688.38;4977072;28;20484;-79
2023/06/28 08:52:50;;;;;;;2.87;1.90;;;;;;;24.89;37.76;99671.50;4974880;28;20460;-79
2023/06/28 08:55:16;;;;;;;4.13;2.27;;;;;;;24.90;37.32;99683.13;4975299;28;20262;-80
2023/06/28 08:57:43;;;;;;;3.20;2.20;;;;;;;24.79;37.16;99689.81;4975847;28;20435;-79
2023/06/28 09:00:11;;;;;;;2.70;2.23;;;;;;;24.67;37.40;99678.69;4970602;28;20455;-80
2023/06/28 09:02:41;;;;;;;9.60;3.03;;;;;;;24.71;37.72;99680.00;4970730;28;20629;-79
2023/06/28 09:05:09;;;;;;;2.10;1.90;;;;;;;24.77;37.35;99678.41;4975287;28;20479;-80
2023/06/28 09:07:37;;;;;;;4.17;2.50;;;;;;;24.84;37.46;99667.72;4971297;28;20861;-81
2023/06/28 09:10:03;;;;;;;5.00;3.93;;;;;;;24.90;37.67;99667.81;4972307;28;20541;-82
2023/06/28 09:12:29;;;;;;;2.50;2.30;;;;;;;24.93;37.53;99667.44;4972299;28;21148;-80
2023/06/28 09:14:55;;;;;;;2.93;2.10;;;;;;;25.01;37.69;99668.34;4963439;28;20308;-82
2023/06/28 09:17:21;;;;;;;3.80;2.40;;;;;;;25.02;37.62;99664.63;4973166;28;20547;-80
2023/06/28 09:19:46;;;;;;;3.90;2.23;;;;;;;25.03;37.64;99660.91;4975696;28;21169;-81
2023/06/28 09:22:12;;;;;;;4.17;2.60;;;;;;;25.11;37.88;99663.47;4969547;28;20210;-79
2023/06/28 09:24:38;;;;;;;3.17;2.57;;;;;;;25.16;37.60;99656.53;4973413;28;20873;-80
2023/06/28 09:27:06;;;;;;;5.33;2.83;;;;;;;25.27;37.34;99649.00;4972343;28;20208;-81
2023/06/28 09:29:31;;;;;;;3.70;2.50;;;;;;;25.36;37.41;99642.47;4970071;28;20436;-83
2023/06/28 09:31:57;;;;;;;5.53;2.40;;;;;;;25.50;37.39;99640.75;4973376;28;20625;-80
2023/06/28 09:34:23;;;;;;;3.70;2.83;;;;;;;25.66;36.83;99637.78;4974584;28;20209;-79
2023/06/28 09:36:52;;;;;;;3.57;2.50;;;;;;;25.78;36.67;99632.69;4971482;28;20211;-80
2023/06/28 09:39:20;;;;;;;3.03;1.97;;;;;;;25.82;36.33;99634.78;4972997;28;20474;-81
2023/06/28 09:41:45;;;;;;;2.93;2.07;;;;;;;25.85;36.11;99633.59;4971558;28;20969;-80
2023/06/28 09:44:11;;;;;;;4.47;2.43;;;;;;;25.93;36.33;99636.16;4971493;28;20447;-82
2023/06/28 09:46:45;;;;;;;5.13;2.10;;;;;;;26.10;35.74;99636.66;4969039;28;20227;-81
2023/06/28 09:49:21;;;;;;;4.60;2.47;;;;;;;26.26;35.58;99632.81;4977103;28;20972;-80
2023/06/28 09:52:04;;;;;;;2.50;1.87;;;;;;;26.35;35.50;99628.09;4989794;28;20460;-80
2023/06/28 09:54:30;;;;;;;4.30;2.30;;;;;;;26.46;35.11;99630.22;4985179;28;20467;-80
2023/06/28 09:56:56;;;;;;;4.50;2.20;;;;;;;26.54;34.54;99630.06;4973720;28;20495;-81
2023/06/28 09:59:26;;;;;;;4.03;2.03;;;;;;;26.63;34.56;99631.56;4954939;28;20475;-81
2023/06/28 10:01:52;;;;;;;4.10;2.43;;;;;;;26.72;34.06;99623.31;4971865;28;20210;-80
2023/06/28 10:04:19;;;;;;;4.40;2.10;;;;;;;26.75;33.90;99621.03;4975947;28;21017;-80
2023/06/28 10:06:46;;;;;;;4.10;1.77;;;;;;;26.73;33.94;99624.97;4977353;28;20462;-81
2023/06/28 10:09:16;;;;;;;2.57;2.00;;;;;;;26.72;33.78;99617.94;4976822;28;20470;-80
2023/06/28 10:11:44;;;;;;;4.40;2.07;;;;;;;26.70;33.21;99621.63;4977836;28;20528;-80
2023/06/28 10:14:12;;;;;;;3.73;1.67;;;;;;;26.74;33.10;99614.00;4976577;28;20788;-79
2023/06/28 10:16:40;;;;;;;7.63;3.43;;;;;;;26.76;33.02;99622.72;4976176;28;20888;-80
2023/06/28 10:19:09;;;;;;;4.00;1.77;;;;;;;26.80;32.91;99623.13;4977206;28;20496;-81
2023/06/28 10:21:35;;;;;;;4.53;1.60;;;;;;;26.80;31.98;99623.13;4977588;28;20715;-81
2023/06/28 10:24:03;;;;;;;8.50;2.20;;;;;;;27.00;32.20;99624.00;4975448;28;20474;-81
2023/06/28 10:26:30;;;;;;;2.23;1.90;;;;;;;27.24;31.87;99629.88;4975465;28;20206;-81
2023/06/28 10:28:57;;;;;;;2.70;2.20;;;;;;;27.49;31.57;99624.72;4975214;28;20507;-81
2023/06/28 10:31:24;;;;;;;3.23;1.83;;;;;;;27.65;30.93;99621.59;4974522;28;20579;-83
2023/06/28 10:33:50;;;;;;;3.90;1.70;;;;;;;27.78;29.96;99618.06;4974153;28;20982;-80
2023/06/28 10:36:16;;;;;;;1.90;1.70;;;;;;;27.86;29.89;99620.56;4957883;28;20530;-80
2023/06/28 10:38:44;;;;;;;3.10;1.90;;;;;;;28.04;29.99;99617.22;4974681;28;20503;-80
2023/06/28 10:41:17;;;;;;;2.47;1.80;;;;;;;28.16;30.29;99620.94;4980177;28;20462;-80
2023/06/28 10:43:46;;;;;;;2.10;1.90;;;;;;;28.27;29.85;99626.72;4982228;28;20457;-82
2023/06/28 10:46:25;;;;;;;4.40;1.47;;;;;;;28.29;28.64;99622.75;4980399;28;20602;-80
2023/06/28 10:48:59;;;;;;;4.43;2.43;;;;;;;28.21;28.55;99617.59;4978535;28;20494;-79
2023/06/28 10:51:31;;;;;;;2.33;1.40;;;;;;;28.02;28.06;99625.53;4976461;28;20482;-82
2023/06/28 10:54:12;;;;;;;2.10;1.70;;;;;;;27.96;28.74;99615.59;4972082;28;20486;-79
2023/06/28 10:56:43;;;;;;;4.27;2.00;;;;;;;28.18;28.73;99613.44;4972407;28;20453;-79
2023/06/28 10:59:08;;;;;;;2.70;1.90;;;;;;;28.38;28.53;99602.59;4972246;28;20543;-81
2023/06/28 11:01:36;;;;;;;3.13;1.80;;;;;;;28.59;28.52;99597.94;4973976;28;20531;-82
2023/06/28 11:04:22;;;;;;;8.03;2.10;;;;;;;28.57;27.37;99590.06;4976640;28;20292;-81
2023/06/28 11:06:48;;;;;;;2.47;2.10;;;;;;;28.14;27.24;99593.31;4973696;28;20440;-80
2023/06/28 11:09:19;;;;;;;3.23;2.93;;;;;;;27.63;28.27;99580.53;4974509;28;20526;-82
2023/06/28 11:11:56;;;;;;;2.23;1.40;;;;;;;27.43;28.46;99580.50;4980543;28;20473;-80
2023/06/28 11:14:31;;;;;;;3.70;2.03;;;;;;;27.46;28.60;99577.41;4974644;28;20471;-80
2023/06/28 11:17:12;;;;;;;3.47;1.50;;;;;;;27.65;28.43;99583.00;4976089;28;20499;-80
2023/06/28 11:19:39;;;;;;;3.37;1.83;;;;;;;27.85;28.49;99583.00;4976612;28;20471;-83
2023/06/28 11:22:05;;;;;;;2.40;1.80;;;;;;;28.07;28.09;99584.41;4976880;28;20816;-81
2023/06/28 11:24:37;;;;;;;3.20;1.87;;;;;;;28.15;27.93;99588.75;4977736;28;20470;-80
2023/06/28 11:27:08;;;;;;;5.67;2.50;;;;;;;28.18;28.20;99580.22;4972194;28;20457;-81
2023/06/28 11:29:56;;;;;;;2.47;1.70;;;;;;;28.27;27.87;99583.50;4977070;28;20874;-80
2023/06/28 11:32:23;;;;;;;8.10;2.30;;;;;;;28.14;28.12;99582.53;4977795;28;20864;-81